sensor_id;sensor_type;location;lat;lon;timestamp;P1;durP1;ratioP1;P2;durP2;ratioP2
70812;SDS011;62099;52.170;5.386;2022-09-30T00:01:13;4.38;;;1.75;;
70812;SDS011;62099;52.170;5.386;2022-09-30T00:03:40;5.03;;;1.80;;
70812;SDS011;62099;52.170;5.386;2022-09-30T00:06:07;4.63;;;1.83;;
70812;SDS011;62099;52.170;5.386;2022-09-30T00:08:35;4.15;;;1.83;;
70812;SDS011;62099;52.170;5.386;2022-09-30T00:11:13;6.65;;;1.60;;
70812;SDS011;62099;52.170;5.386;2022-09-30T00:13:46;6.35;;;1.90;;
70812;SDS011;62099;52.170;5.386;2022-09-30T00:16:14;6.57;;;2.00;;
70812;SDS011;62099;52.170;5.386;2022-09-30T00:18:42;5.63;;;1.70;;
70812;SDS011;62099;52.170;5.386;2022-09-30T00:21:10;4.30;;;1.67;;
70812;SDS011;62099;52.170;5.386;2022-09-30T00:23:38;3.65;;;1.52;;
70812;SDS011;62099;52.170;5.386;2022-09-30T00:28:33;5.15;;;2.00;;
70812;SDS011;62099;52.170;5.386;2022-09-30T00:31:01;3.67;;;1.60;;
70812;SDS011;62099;52.170;5.386;2022-09-30T00:33:30;5.32;;;1.42;;
70812;SDS011;62099;52.170;5.386;2022-09-30T00:35:57;4.90;;;1.40;;
70812;SDS011;62099;52.170;5.386;2022-09-30T00:38:24;4.00;;;1.15;;
70812;SDS011;62099;52.170;5.386;2022-09-30T00:40:50;6.13;;;1.85;;
70812;SDS011;62099;52.170;5.386;2022-09-30T00:43:19;7.50;;;1.50;;
70812;SDS011;62099;52.170;5.386;2022-09-30T00:46:09;4.53;;;1.58;;
70812;SDS011;62099;52.170;5.386;2022-09-30T00:48:56;4.38;;;1.60;;
70812;SDS011;62099;52.170;5.386;2022-09-30T00:51:34;4.07;;;1.50;;
70812;SDS011;62099;52.170;5.386;2022-09-30T00:54:25;2.85;;;1.20;;
70812;SDS011;62099;52.170;5.386;2022-09-30T00:56:56;4.20;;;1.25;;
70812;SDS011;62099;52.170;5.386;2022-09-30T00:59:40;4.32;;;1.23;;
70812;SDS011;62099;52.170;5.386;2022-09-30T01:02:12;2.38;;;1.08;;
70812;SDS011;62099;52.170;5.386;2022-09-30T01:07:08;3.13;;;1.30;;
70812;SDS011;62099;52.170;5.386;2022-09-30T01:09:35;2.83;;;1.20;;
70812;SDS011;62099;52.170;5.386;2022-09-30T01:12:08;1.85;;;0.90;;
70812;SDS011;62099;52.170;5.386;2022-09-30T01:14:41;2.88;;;1.10;;
70812;SDS011;62099;52.170;5.386;2022-09-30T01:25:27;3.08;;;1.23;;
70812;SDS011;62099;52.170;5.386;2022-09-30T01:39:49;4.85;;;1.10;;
70812;SDS011;62099;52.170;5.386;2022-09-30T01:44:34;2.42;;;0.90;;
70812;SDS011;62099;52.170;5.386;2022-09-30T01:57:49;3.13;;;1.30;;
70812;SDS011;62099;52.170;5.386;2022-09-30T02:00:12;2.78;;;1.20;;
70812;SDS011;62099;52.170;5.386;2022-09-30T02:02:44;3.83;;;1.10;;
70812;SDS011;62099;52.170;5.386;2022-09-30T02:05:25;2.80;;;1.30;;
70812;SDS011;62099;52.170;5.386;2022-09-30T02:07:59;3.70;;;1.50;;
70812;SDS011;62099;52.170;5.386;2022-09-30T02:13:04;3.10;;;1.35;;
70812;SDS011;62099;52.170;5.386;2022-09-30T02:15:40;4.47;;;1.40;;
70812;SDS011;62099;52.170;5.386;2022-09-30T02:18:14;2.65;;;1.40;;
70812;SDS011;62099;52.170;5.386;2022-09-30T02:20:56;3.58;;;1.70;;
70812;SDS011;62099;52.170;5.386;2022-09-30T02:23:35;3.40;;;1.50;;
70812;SDS011;62099;52.170;5.386;2022-09-30T02:26:08;5.18;;;1.30;;
70812;SDS011;62099;52.170;5.386;2022-09-30T02:28:43;2.65;;;1.23;;
70812;SDS011;62099;52.170;5.386;2022-09-30T02:31:16;4.72;;;1.60;;
70812;SDS011;62099;52.170;5.386;2022-09-30T02:33:48;3.85;;;1.70;;
70812;SDS011;62099;52.170;5.386;2022-09-30T02:36:21;3.35;;;1.35;;
70812;SDS011;62099;52.170;5.386;2022-09-30T02:38:52;2.72;;;1.33;;
70812;SDS011;62099;52.170;5.386;2022-09-30T02:41:26;6.55;;;1.63;;
70812;SDS011;62099;52.170;5.386;2022-09-30T02:43:55;4.40;;;1.40;;
70812;SDS011;62099;52.170;5.386;2022-09-30T02:46:33;4.95;;;1.27;;
70812;SDS011;62099;52.170;5.386;2022-09-30T02:52:14;3.78;;;1.70;;
70812;SDS011;62099;52.170;5.386;2022-09-30T02:59:59;3.95;;;1.70;;
70812;SDS011;62099;52.170;5.386;2022-09-30T03:02:29;7.38;;;1.73;;
70812;SDS011;62099;52.170;5.386;2022-09-30T03:04:56;5.50;;;1.98;;
70812;SDS011;62099;52.170;5.386;2022-09-30T03:07:22;5.50;;;1.83;;
70812;SDS011;62099;52.170;5.386;2022-09-30T03:09:53;8.15;;;1.80;;
70812;SDS011;62099;52.170;5.386;2022-09-30T03:20:36;6.60;;;1.88;;
70812;SDS011;62099;52.170;5.386;2022-09-30T03:23:15;5.00;;;1.75;;
70812;SDS011;62099;52.170;5.386;2022-09-30T03:25:57;6.45;;;1.92;;
70812;SDS011;62099;52.170;5.386;2022-09-30T03:28:50;3.90;;;1.60;;
70812;SDS011;62099;52.170;5.386;2022-09-30T03:34:30;4.20;;;1.83;;
70812;SDS011;62099;52.170;5.386;2022-09-30T03:37:09;6.40;;;1.60;;
70812;SDS011;62099;52.170;5.386;2022-09-30T03:40:00;4.85;;;1.95;;
70812;SDS011;62099;52.170;5.386;2022-09-30T03:42:52;4.68;;;1.80;;
70812;SDS011;62099;52.170;5.386;2022-09-30T03:48:08;4.65;;;1.90;;
70812;SDS011;62099;52.170;5.386;2022-09-30T03:50:38;6.80;;;2.00;;
70812;SDS011;62099;52.170;5.386;2022-09-30T03:53:09;4.35;;;1.90;;
70812;SDS011;62099;52.170;5.386;2022-09-30T03:55:47;4.72;;;2.20;;
70812;SDS011;62099;52.170;5.386;2022-09-30T03:58:17;9.20;;;2.30;;
70812;SDS011;62099;52.170;5.386;2022-09-30T04:00:46;5.57;;;2.00;;
70812;SDS011;62099;52.170;5.386;2022-09-30T04:03:15;5.32;;;1.95;;
70812;SDS011;62099;52.170;5.386;2022-09-30T04:08:09;6.90;;;2.90;;
70812;SDS011;62099;52.170;5.386;2022-09-30T04:10:37;5.65;;;2.67;;
70812;SDS011;62099;52.170;5.386;2022-09-30T04:13:09;7.63;;;3.63;;
70812;SDS011;62099;52.170;5.386;2022-09-30T04:15:37;6.38;;;2.95;;
70812;SDS011;62099;52.170;5.386;2022-09-30T04:18:04;7.05;;;3.17;;
70812;SDS011;62099;52.170;5.386;2022-09-30T04:20:31;8.93;;;3.17;;
70812;SDS011;62099;52.170;5.386;2022-09-30T04:22:58;7.40;;;3.03;;
70812;SDS011;62099;52.170;5.386;2022-09-30T04:25:26;9.45;;;3.15;;
70812;SDS011;62099;52.170;5.386;2022-09-30T04:27:54;10.23;;;3.78;;
70812;SDS011;62099;52.170;5.386;2022-09-30T04:30:21;9.52;;;3.38;;
70812;SDS011;62099;52.170;5.386;2022-09-30T04:32:52;8.63;;;3.50;;
70812;SDS011;62099;52.170;5.386;2022-09-30T04:35:19;9.52;;;3.70;;
70812;SDS011;62099;52.170;5.386;2022-09-30T04:37:46;9.20;;;3.83;;
70812;SDS011;62099;52.170;5.386;2022-09-30T04:40:14;22.35;;;12.82;;
70812;SDS011;62099;52.170;5.386;2022-09-30T04:42:42;9.52;;;4.10;;
70812;SDS011;62099;52.170;5.386;2022-09-30T04:45:09;8.00;;;4.03;;
70812;SDS011;62099;52.170;5.386;2022-09-30T04:47:38;8.18;;;3.65;;
70812;SDS011;62099;52.170;5.386;2022-09-30T04:50:08;8.70;;;3.83;;
70812;SDS011;62099;52.170;5.386;2022-09-30T04:52:35;9.27;;;4.20;;
70812;SDS011;62099;52.170;5.386;2022-09-30T04:55:03;9.25;;;3.72;;
70812;SDS011;62099;52.170;5.386;2022-09-30T04:57:30;12.00;;;3.80;;
70812;SDS011;62099;52.170;5.386;2022-09-30T04:59:57;10.23;;;4.03;;
70812;SDS011;62099;52.170;5.386;2022-09-30T05:02:24;9.70;;;4.15;;
70812;SDS011;62099;52.170;5.386;2022-09-30T05:04:51;6.93;;;3.47;;
70812;SDS011;62099;52.170;5.386;2022-09-30T05:07:20;8.02;;;3.88;;
70812;SDS011;62099;52.170;5.386;2022-09-30T05:09:47;10.75;;;3.47;;
70812;SDS011;62099;52.170;5.386;2022-09-30T05:12:13;10.75;;;3.47;;
70812;SDS011;62099;52.170;5.386;2022-09-30T05:14:40;9.27;;;3.50;;
70812;SDS011;62099;52.170;5.386;2022-09-30T05:17:07;7.07;;;2.80;;
70812;SDS011;62099;52.170;5.386;2022-09-30T05:19:34;6.50;;;3.03;;
70812;SDS011;62099;52.170;5.386;2022-09-30T05:22:01;7.50;;;3.00;;
70812;SDS011;62099;52.170;5.386;2022-09-30T05:26:56;10.25;;;3.10;;
70812;SDS011;62099;52.170;5.386;2022-09-30T05:29:22;8.00;;;3.10;;
70812;SDS011;62099;52.170;5.386;2022-09-30T05:31:49;9.50;;;2.92;;
70812;SDS011;62099;52.170;5.386;2022-09-30T05:34:16;5.82;;;2.78;;
70812;SDS011;62099;52.170;5.386;2022-09-30T05:36:43;6.75;;;2.80;;
70812;SDS011;62099;52.170;5.386;2022-09-30T05:39:10;8.52;;;3.63;;
70812;SDS011;62099;52.170;5.386;2022-09-30T05:44:03;10.93;;;4.10;;
70812;SDS011;62099;52.170;5.386;2022-09-30T05:46:31;8.10;;;3.78;;
70812;SDS011;62099;52.170;5.386;2022-09-30T05:48:58;9.32;;;4.28;;
70812;SDS011;62099;52.170;5.386;2022-09-30T05:51:25;9.57;;;4.20;;
70812;SDS011;62099;52.170;5.386;2022-09-30T05:53:51;9.02;;;4.00;;
70812;SDS011;62099;52.170;5.386;2022-09-30T05:56:18;12.20;;;4.32;;
70812;SDS011;62099;52.170;5.386;2022-09-30T05:58:45;13.98;;;5.68;;
70812;SDS011;62099;52.170;5.386;2022-09-30T06:01:13;18.02;;;7.63;;
70812;SDS011;62099;52.170;5.386;2022-09-30T06:03:41;17.98;;;6.07;;
70812;SDS011;62099;52.170;5.386;2022-09-30T06:06:09;14.07;;;7.22;;
70812;SDS011;62099;52.170;5.386;2022-09-30T06:08:35;16.67;;;7.78;;
70812;SDS011;62099;52.170;5.386;2022-09-30T06:11:06;12.75;;;5.80;;
70812;SDS011;62099;52.170;5.386;2022-09-30T06:13:37;14.52;;;5.93;;
70812;SDS011;62099;52.170;5.386;2022-09-30T06:16:05;15.88;;;6.65;;
70812;SDS011;62099;52.170;5.386;2022-09-30T06:18:33;11.52;;;6.28;;
70812;SDS011;62099;52.170;5.386;2022-09-30T06:21:01;12.18;;;6.85;;
70812;SDS011;62099;52.170;5.386;2022-09-30T06:23:30;15.35;;;8.20;;
70812;SDS011;62099;52.170;5.386;2022-09-30T06:26:00;17.10;;;8.82;;
70812;SDS011;62099;52.170;5.386;2022-09-30T06:28:28;16.00;;;8.63;;
70812;SDS011;62099;52.170;5.386;2022-09-30T06:30:55;17.88;;;9.73;;
70812;SDS011;62099;52.170;5.386;2022-09-30T06:33:21;17.35;;;9.65;;
70812;SDS011;62099;52.170;5.386;2022-09-30T06:35:49;20.08;;;9.35;;
70812;SDS011;62099;52.170;5.386;2022-09-30T06:40:42;20.33;;;9.90;;
70812;SDS011;62099;52.170;5.386;2022-09-30T06:43:10;21.35;;;10.50;;
70812;SDS011;62099;52.170;5.386;2022-09-30T06:45:37;19.00;;;9.35;;
70812;SDS011;62099;52.170;5.386;2022-09-30T06:48:04;18.80;;;10.38;;
70812;SDS011;62099;52.170;5.386;2022-09-30T06:50:34;20.55;;;12.27;;
70812;SDS011;62099;52.170;5.386;2022-09-30T06:53:02;20.85;;;11.52;;
70812;SDS011;62099;52.170;5.386;2022-09-30T06:55:32;26.60;;;14.02;;
70812;SDS011;62099;52.170;5.386;2022-09-30T06:58:01;24.05;;;13.98;;
70812;SDS011;62099;52.170;5.386;2022-09-30T07:00:28;26.95;;;15.75;;
70812;SDS011;62099;52.170;5.386;2022-09-30T07:02:55;25.25;;;15.43;;
70812;SDS011;62099;52.170;5.386;2022-09-30T07:05:22;29.15;;;16.15;;
70812;SDS011;62099;52.170;5.386;2022-09-30T07:07:51;30.77;;;19.80;;
70812;SDS011;62099;52.170;5.386;2022-09-30T07:10:19;28.80;;;14.93;;
70812;SDS011;62099;52.170;5.386;2022-09-30T07:12:49;28.30;;;16.00;;
70812;SDS011;62099;52.170;5.386;2022-09-30T07:15:20;25.13;;;14.85;;
70812;SDS011;62099;52.170;5.386;2022-09-30T07:17:51;27.13;;;15.50;;
70812;SDS011;62099;52.170;5.386;2022-09-30T07:20:18;27.67;;;16.63;;
70812;SDS011;62099;52.170;5.386;2022-09-30T07:22:45;28.23;;;15.70;;
70812;SDS011;62099;52.170;5.386;2022-09-30T07:27:39;28.50;;;16.50;;
70812;SDS011;62099;52.170;5.386;2022-09-30T07:32:41;31.20;;;16.45;;
70812;SDS011;62099;52.170;5.386;2022-09-30T07:37:34;31.20;;;17.75;;
70812;SDS011;62099;52.170;5.386;2022-09-30T07:42:31;30.98;;;19.35;;
70812;SDS011;62099;52.170;5.386;2022-09-30T07:44:57;32.15;;;19.42;;
70812;SDS011;62099;52.170;5.386;2022-09-30T07:47:24;32.70;;;19.02;;
70812;SDS011;62099;52.170;5.386;2022-09-30T07:49:51;33.88;;;19.23;;
70812;SDS011;62099;52.170;5.386;2022-09-30T07:52:18;31.23;;;18.30;;
70812;SDS011;62099;52.170;5.386;2022-09-30T07:54:44;29.63;;;16.98;;
70812;SDS011;62099;52.170;5.386;2022-09-30T07:57:15;29.83;;;17.40;;
70812;SDS011;62099;52.170;5.386;2022-09-30T07:59:42;25.33;;;16.75;;
70812;SDS011;62099;52.170;5.386;2022-09-30T08:02:14;23.90;;;15.15;;
70812;SDS011;62099;52.170;5.386;2022-09-30T08:04:42;24.27;;;14.23;;
70812;SDS011;62099;52.170;5.386;2022-09-30T08:07:10;22.83;;;13.20;;
70812;SDS011;62099;52.170;5.386;2022-09-30T08:09:38;22.08;;;12.55;;
70812;SDS011;62099;52.170;5.386;2022-09-30T08:12:05;25.85;;;13.25;;
70812;SDS011;62099;52.170;5.386;2022-09-30T08:14:32;24.60;;;12.80;;
70812;SDS011;62099;52.170;5.386;2022-09-30T08:16:58;19.52;;;10.80;;
70812;SDS011;62099;52.170;5.386;2022-09-30T08:19:26;18.45;;;9.88;;
70812;SDS011;62099;52.170;5.386;2022-09-30T08:21:54;17.45;;;9.20;;
70812;SDS011;62099;52.170;5.386;2022-09-30T08:24:22;15.13;;;9.60;;
70812;SDS011;62099;52.170;5.386;2022-09-30T08:26:50;17.30;;;9.50;;
70812;SDS011;62099;52.170;5.386;2022-09-30T08:29:17;17.55;;;9.57;;
70812;SDS011;62099;52.170;5.386;2022-09-30T08:32:04;16.00;;;9.65;;
70812;SDS011;62099;52.170;5.386;2022-09-30T08:34:31;12.98;;;6.88;;
70812;SDS011;62099;52.170;5.386;2022-09-30T08:37:00;13.57;;;7.30;;
70812;SDS011;62099;52.170;5.386;2022-09-30T08:42:06;15.38;;;7.43;;
70812;SDS011;62099;52.170;5.386;2022-09-30T08:48:20;12.35;;;7.13;;
70812;SDS011;62099;52.170;5.386;2022-09-30T08:51:41;14.50;;;7.13;;
70812;SDS011;62099;52.170;5.386;2022-09-30T08:54:02;11.00;;;6.63;;
70812;SDS011;62099;52.170;5.386;2022-09-30T08:56:31;12.52;;;7.07;;
70812;SDS011;62099;52.170;5.386;2022-09-30T08:59:47;11.30;;;6.32;;
70812;SDS011;62099;52.170;5.386;2022-09-30T09:01:47;14.45;;;5.82;;
70812;SDS011;62099;52.170;5.386;2022-09-30T09:04:18;10.95;;;6.35;;
70812;SDS011;62099;52.170;5.386;2022-09-30T09:06:52;11.45;;;6.03;;
70812;SDS011;62099;52.170;5.386;2022-09-30T09:17:42;9.55;;;5.25;;
70812;SDS011;62099;52.170;5.386;2022-09-30T09:20:46;11.10;;;4.85;;
70812;SDS011;62099;52.170;5.386;2022-09-30T09:23:29;9.45;;;5.32;;
70812;SDS011;62099;52.170;5.386;2022-09-30T09:25:58;11.25;;;5.85;;
70812;SDS011;62099;52.170;5.386;2022-09-30T09:31:18;10.23;;;5.65;;
70812;SDS011;62099;52.170;5.386;2022-09-30T09:33:46;11.27;;;5.40;;
70812;SDS011;62099;52.170;5.386;2022-09-30T09:39:55;11.38;;;5.60;;
70812;SDS011;62099;52.170;5.386;2022-09-30T09:48:08;11.00;;;6.65;;
70812;SDS011;62099;52.170;5.386;2022-09-30T09:50:41;11.05;;;5.97;;
70812;SDS011;62099;52.170;5.386;2022-09-30T09:53:34;12.77;;;7.10;;
70812;SDS011;62099;52.170;5.386;2022-09-30T10:01:33;13.10;;;7.40;;
70812;SDS011;62099;52.170;5.386;2022-09-30T10:04:06;13.13;;;7.35;;
70812;SDS011;62099;52.170;5.386;2022-09-30T10:09:35;11.23;;;7.10;;
70812;SDS011;62099;52.170;5.386;2022-09-30T10:14:35;10.48;;;6.22;;
70812;SDS011;62099;52.170;5.386;2022-09-30T10:17:21;13.18;;;5.22;;
70812;SDS011;62099;52.170;5.386;2022-09-30T10:22:34;11.00;;;6.10;;
70812;SDS011;62099;52.170;5.386;2022-09-30T10:33:03;10.68;;;4.72;;
70812;SDS011;62099;52.170;5.386;2022-09-30T10:41:31;8.93;;;3.72;;
70812;SDS011;62099;52.170;5.386;2022-09-30T10:44:05;9.25;;;4.30;;
70812;SDS011;62099;52.170;5.386;2022-09-30T10:46:40;8.15;;;3.25;;
70812;SDS011;62099;52.170;5.386;2022-09-30T10:49:11;6.97;;;3.38;;
70812;SDS011;62099;52.170;5.386;2022-09-30T10:52:00;8.00;;;3.58;;
70812;SDS011;62099;52.170;5.386;2022-09-30T10:57:08;6.28;;;2.85;;
70812;SDS011;62099;52.170;5.386;2022-09-30T10:59:40;5.88;;;2.65;;
70812;SDS011;62099;52.170;5.386;2022-09-30T11:13:06;7.30;;;2.30;;
70812;SDS011;62099;52.170;5.386;2022-09-30T11:21:05;7.15;;;2.20;;
70812;SDS011;62099;52.170;5.386;2022-09-30T11:24:30;5.95;;;1.90;;
70812;SDS011;62099;52.170;5.386;2022-09-30T11:38:15;6.10;;;1.80;;
70812;SDS011;62099;52.170;5.386;2022-09-30T11:43:46;5.45;;;1.85;;
70812;SDS011;62099;52.170;5.386;2022-09-30T11:46:24;6.00;;;2.65;;
70812;SDS011;62099;52.170;5.386;2022-09-30T11:57:46;6.20;;;2.30;;
70812;SDS011;62099;52.170;5.386;2022-09-30T12:00:20;4.50;;;2.30;;
70812;SDS011;62099;52.170;5.386;2022-09-30T12:02:49;4.88;;;2.10;;
70812;SDS011;62099;52.170;5.386;2022-09-30T12:08:21;4.60;;;2.15;;
70812;SDS011;62099;52.170;5.386;2022-09-30T12:10:55;4.45;;;1.90;;
70812;SDS011;62099;52.170;5.386;2022-09-30T12:13:32;5.72;;;2.58;;
70812;SDS011;62099;52.170;5.386;2022-09-30T12:16:14;3.95;;;2.03;;
70812;SDS011;62099;52.170;5.386;2022-09-30T12:18:50;6.38;;;2.08;;
70812;SDS011;62099;52.170;5.386;2022-09-30T12:21:22;3.80;;;1.80;;
70812;SDS011;62099;52.170;5.386;2022-09-30T12:23:54;3.33;;;1.55;;
70812;SDS011;62099;52.170;5.386;2022-09-30T12:26:25;4.53;;;1.80;;
70812;SDS011;62099;52.170;5.386;2022-09-30T12:34:49;3.63;;;1.70;;
70812;SDS011;62099;52.170;5.386;2022-09-30T12:37:25;2.45;;;1.27;;
70812;SDS011;62099;52.170;5.386;2022-09-30T12:46:08;2.95;;;1.45;;
70812;SDS011;62099;52.170;5.386;2022-09-30T12:48:41;4.15;;;2.05;;
70812;SDS011;62099;52.170;5.386;2022-09-30T12:53:58;4.38;;;1.90;;
70812;SDS011;62099;52.170;5.386;2022-09-30T12:56:56;4.80;;;2.00;;
70812;SDS011;62099;52.170;5.386;2022-09-30T12:59:27;5.47;;;2.00;;
70812;SDS011;62099;52.170;5.386;2022-09-30T13:01:56;4.82;;;1.98;;
70812;SDS011;62099;52.170;5.386;2022-09-30T13:04:28;2.85;;;1.90;;
70812;SDS011;62099;52.170;5.386;2022-09-30T13:09:30;4.43;;;2.20;;
70812;SDS011;62099;52.170;5.386;2022-09-30T13:12:39;5.05;;;2.60;;
70812;SDS011;62099;52.170;5.386;2022-09-30T13:15:21;4.78;;;2.10;;
70812;SDS011;62099;52.170;5.386;2022-09-30T13:17:56;6.05;;;2.63;;
70812;SDS011;62099;52.170;5.386;2022-09-30T13:26:03;7.07;;;3.17;;
70812;SDS011;62099;52.170;5.386;2022-09-30T13:28:50;7.95;;;3.30;;
70812;SDS011;62099;52.170;5.386;2022-09-30T13:41:55;6.50;;;2.67;;
70812;SDS011;62099;52.170;5.386;2022-09-30T13:47:34;7.40;;;2.53;;
70812;SDS011;62099;52.170;5.386;2022-09-30T13:52:57;5.93;;;2.30;;
70812;SDS011;62099;52.170;5.386;2022-09-30T13:55:36;4.22;;;1.98;;
70812;SDS011;62099;52.170;5.386;2022-09-30T13:58:29;4.50;;;2.17;;
70812;SDS011;62099;52.170;5.386;2022-09-30T14:11:49;4.10;;;1.50;;
70812;SDS011;62099;52.170;5.386;2022-09-30T14:14:33;6.05;;;1.75;;
70812;SDS011;62099;52.170;5.386;2022-09-30T14:20:02;4.97;;;1.50;;
70812;SDS011;62099;52.170;5.386;2022-09-30T14:22:52;3.75;;;1.33;;
70812;SDS011;62099;52.170;5.386;2022-09-30T14:25:19;4.88;;;1.75;;
70812;SDS011;62099;52.170;5.386;2022-09-30T14:27:58;3.72;;;1.42;;
70812;SDS011;62099;52.170;5.386;2022-09-30T14:30:30;4.38;;;1.80;;
70812;SDS011;62099;52.170;5.386;2022-09-30T14:33:24;3.40;;;1.55;;
70812;SDS011;62099;52.170;5.386;2022-09-30T14:35:51;5.35;;;1.85;;
70812;SDS011;62099;52.170;5.386;2022-09-30T14:38:20;6.30;;;2.15;;
70812;SDS011;62099;52.170;5.386;2022-09-30T14:40:53;8.82;;;1.70;;
70812;SDS011;62099;52.170;5.386;2022-09-30T14:43:24;4.70;;;1.63;;
70812;SDS011;62099;52.170;5.386;2022-09-30T14:46:04;4.75;;;1.80;;
70812;SDS011;62099;52.170;5.386;2022-09-30T14:48:36;5.93;;;1.83;;
70812;SDS011;62099;52.170;5.386;2022-09-30T14:51:08;6.85;;;2.13;;
70812;SDS011;62099;52.170;5.386;2022-09-30T14:53:50;3.58;;;1.48;;
70812;SDS011;62099;52.170;5.386;2022-09-30T14:56:25;5.05;;;2.20;;
70812;SDS011;62099;52.170;5.386;2022-09-30T14:58:57;3.85;;;1.80;;
70812;SDS011;62099;52.170;5.386;2022-09-30T15:01:29;3.92;;;2.00;;
70812;SDS011;62099;52.170;5.386;2022-09-30T15:04:13;5.13;;;1.90;;
70812;SDS011;62099;52.170;5.386;2022-09-30T15:06:43;5.47;;;1.90;;
70812;SDS011;62099;52.170;5.386;2022-09-30T15:09:17;4.93;;;2.22;;
70812;SDS011;62099;52.170;5.386;2022-09-30T15:11:53;7.63;;;2.58;;
70812;SDS011;62099;52.170;5.386;2022-09-30T15:14:21;3.97;;;1.95;;
70812;SDS011;62099;52.170;5.386;2022-09-30T15:16:50;5.18;;;1.92;;
70812;SDS011;62099;52.170;5.386;2022-09-30T15:21:48;7.65;;;2.22;;
70812;SDS011;62099;52.170;5.386;2022-09-30T15:24:18;5.80;;;2.10;;
70812;SDS011;62099;52.170;5.386;2022-09-30T15:26:48;5.95;;;2.55;;
70812;SDS011;62099;52.170;5.386;2022-09-30T15:29:16;8.13;;;3.15;;
70812;SDS011;62099;52.170;5.386;2022-09-30T15:31:56;5.82;;;2.33;;
70812;SDS011;62099;52.170;5.386;2022-09-30T15:34:26;7.43;;;2.72;;
70812;SDS011;62099;52.170;5.386;2022-09-30T15:36:55;8.45;;;2.97;;
70812;SDS011;62099;52.170;5.386;2022-09-30T15:39:38;6.68;;;2.83;;
70812;SDS011;62099;52.170;5.386;2022-09-30T15:42:35;8.60;;;2.80;;
70812;SDS011;62099;52.170;5.386;2022-09-30T15:47:53;7.45;;;3.03;;
70812;SDS011;62099;52.170;5.386;2022-09-30T15:50:42;6.05;;;2.90;;
70812;SDS011;62099;52.170;5.386;2022-09-30T15:55:50;7.18;;;2.95;;
70812;SDS011;62099;52.170;5.386;2022-09-30T15:58:37;6.05;;;2.80;;
70812;SDS011;62099;52.170;5.386;2022-09-30T16:03:45;6.40;;;2.85;;
70812;SDS011;62099;52.170;5.386;2022-09-30T16:06:14;7.47;;;2.90;;
70812;SDS011;62099;52.170;5.386;2022-09-30T16:08:47;6.22;;;3.00;;
70812;SDS011;62099;52.170;5.386;2022-09-30T16:11:20;7.85;;;2.97;;
70812;SDS011;62099;52.170;5.386;2022-09-30T16:13:51;9.20;;;2.85;;
70812;SDS011;62099;52.170;5.386;2022-09-30T16:16:20;7.78;;;2.90;;
70812;SDS011;62099;52.170;5.386;2022-09-30T16:18:52;5.82;;;2.92;;
70812;SDS011;62099;52.170;5.386;2022-09-30T16:21:26;5.93;;;2.70;;
70812;SDS011;62099;52.170;5.386;2022-09-30T16:26:54;7.47;;;2.58;;
70812;SDS011;62099;52.170;5.386;2022-09-30T16:29:22;7.43;;;3.10;;
70812;SDS011;62099;52.170;5.386;2022-09-30T16:31:54;8.32;;;3.40;;
70812;SDS011;62099;52.170;5.386;2022-09-30T16:34:28;8.85;;;2.95;;
70812;SDS011;62099;52.170;5.386;2022-09-30T16:37:03;7.45;;;2.95;;
70812;SDS011;62099;52.170;5.386;2022-09-30T16:39:36;6.78;;;3.00;;
70812;SDS011;62099;52.170;5.386;2022-09-30T16:44:30;6.63;;;3.20;;
70812;SDS011;62099;52.170;5.386;2022-09-30T16:47:01;7.55;;;3.60;;
70812;SDS011;62099;52.170;5.386;2022-09-30T16:49:27;8.60;;;3.35;;
70812;SDS011;62099;52.170;5.386;2022-09-30T16:54:21;5.05;;;2.75;;
70812;SDS011;62099;52.170;5.386;2022-09-30T16:56:47;7.35;;;3.10;;
70812;SDS011;62099;52.170;5.386;2022-09-30T17:01:42;6.63;;;2.80;;
70812;SDS011;62099;52.170;5.386;2022-09-30T17:04:09;7.60;;;3.10;;
70812;SDS011;62099;52.170;5.386;2022-09-30T17:06:42;7.57;;;2.83;;
70812;SDS011;62099;52.170;5.386;2022-09-30T17:11:35;5.47;;;2.33;;
70812;SDS011;62099;52.170;5.386;2022-09-30T17:14:03;7.28;;;3.33;;
70812;SDS011;62099;52.170;5.386;2022-09-30T17:16:30;5.97;;;3.05;;
70812;SDS011;62099;52.170;5.386;2022-09-30T17:18:58;7.50;;;3.30;;
70812;SDS011;62099;52.170;5.386;2022-09-30T17:23:52;6.78;;;3.25;;
70812;SDS011;62099;52.170;5.386;2022-09-30T17:26:20;6.55;;;3.30;;
70812;SDS011;62099;52.170;5.386;2022-09-30T17:28:47;6.90;;;3.35;;
70812;SDS011;62099;52.170;5.386;2022-09-30T17:31:14;6.10;;;2.90;;
70812;SDS011;62099;52.170;5.386;2022-09-30T17:33:41;9.00;;;3.17;;
70812;SDS011;62099;52.170;5.386;2022-09-30T17:38:36;8.82;;;2.97;;
70812;SDS011;62099;52.170;5.386;2022-09-30T17:41:04;5.80;;;3.40;;
70812;SDS011;62099;52.170;5.386;2022-09-30T17:43:50;7.25;;;3.42;;
70812;SDS011;62099;52.170;5.386;2022-09-30T17:46:17;5.72;;;3.05;;
70812;SDS011;62099;52.170;5.386;2022-09-30T17:48:48;8.43;;;3.30;;
70812;SDS011;62099;52.170;5.386;2022-09-30T17:51:19;8.27;;;3.00;;
70812;SDS011;62099;52.170;5.386;2022-09-30T17:53:48;6.18;;;3.10;;
70812;SDS011;62099;52.170;5.386;2022-09-30T17:56:16;6.45;;;3.10;;
70812;SDS011;62099;52.170;5.386;2022-09-30T17:58:45;11.05;;;3.50;;
70812;SDS011;62099;52.170;5.386;2022-09-30T18:01:14;9.15;;;3.22;;
70812;SDS011;62099;52.170;5.386;2022-09-30T18:03:43;8.48;;;3.40;;
70812;SDS011;62099;52.170;5.386;2022-09-30T18:06:11;7.60;;;3.47;;
70812;SDS011;62099;52.170;5.386;2022-09-30T18:08:41;7.20;;;3.17;;
70812;SDS011;62099;52.170;5.386;2022-09-30T18:11:08;7.60;;;3.55;;
70812;SDS011;62099;52.170;5.386;2022-09-30T18:13:36;10.20;;;3.03;;
70812;SDS011;62099;52.170;5.386;2022-09-30T18:16:06;7.00;;;3.50;;
70812;SDS011;62099;52.170;5.386;2022-09-30T18:18:33;6.95;;;3.50;;
70812;SDS011;62099;52.170;5.386;2022-09-30T18:21:00;9.27;;;3.70;;
70812;SDS011;62099;52.170;5.386;2022-09-30T18:23:27;9.00;;;3.50;;
70812;SDS011;62099;52.170;5.386;2022-09-30T18:25:54;7.45;;;3.90;;
70812;SDS011;62099;52.170;5.386;2022-09-30T18:28:21;8.20;;;3.60;;
70812;SDS011;62099;52.170;5.386;2022-09-30T18:30:48;9.93;;;3.58;;
70812;SDS011;62099;52.170;5.386;2022-09-30T18:33:15;7.38;;;3.67;;
70812;SDS011;62099;52.170;5.386;2022-09-30T18:35:43;9.00;;;3.92;;
70812;SDS011;62099;52.170;5.386;2022-09-30T18:38:11;7.43;;;3.70;;
70812;SDS011;62099;52.170;5.386;2022-09-30T18:40:40;8.15;;;3.83;;
70812;SDS011;62099;52.170;5.386;2022-09-30T18:43:08;8.23;;;3.45;;
70812;SDS011;62099;52.170;5.386;2022-09-30T18:45:38;7.63;;;3.83;;
70812;SDS011;62099;52.170;5.386;2022-09-30T18:48:06;9.85;;;4.07;;
70812;SDS011;62099;52.170;5.386;2022-09-30T18:50:33;8.27;;;3.53;;
70812;SDS011;62099;52.170;5.386;2022-09-30T18:55:35;10.90;;;4.22;;
70812;SDS011;62099;52.170;5.386;2022-09-30T18:58:03;7.97;;;4.00;;
70812;SDS011;62099;52.170;5.386;2022-09-30T19:00:29;8.18;;;3.45;;
70812;SDS011;62099;52.170;5.386;2022-09-30T19:05:23;8.23;;;3.58;;
70812;SDS011;62099;52.170;5.386;2022-09-30T19:10:17;7.07;;;3.60;;
70812;SDS011;62099;52.170;5.386;2022-09-30T19:12:44;8.63;;;3.22;;
70812;SDS011;62099;52.170;5.386;2022-09-30T19:17:41;10.77;;;3.78;;
70812;SDS011;62099;52.170;5.386;2022-09-30T19:20:09;7.88;;;3.40;;
70812;SDS011;62099;52.170;5.386;2022-09-30T19:22:36;8.45;;;3.60;;
70812;SDS011;62099;52.170;5.386;2022-09-30T19:25:04;8.90;;;3.83;;
70812;SDS011;62099;52.170;5.386;2022-09-30T19:27:32;7.78;;;3.80;;
70812;SDS011;62099;52.170;5.386;2022-09-30T19:30:03;8.50;;;3.47;;
70812;SDS011;62099;52.170;5.386;2022-09-30T19:32:31;6.85;;;3.53;;
70812;SDS011;62099;52.170;5.386;2022-09-30T19:35:01;8.52;;;3.28;;
70812;SDS011;62099;52.170;5.386;2022-09-30T19:37:35;8.35;;;3.53;;
70812;SDS011;62099;52.170;5.386;2022-09-30T19:40:02;8.35;;;3.78;;
70812;SDS011;62099;52.170;5.386;2022-09-30T19:42:45;7.15;;;3.00;;